sensor_id;sensor_type;location;lat;lon;timestamp;P1;durP1;ratioP1;P2;durP2;ratioP2
75689;SDS011;64303;53.118;9.044;2023-07-28T00:00:18;5.60;;;3.88;;
75689;SDS011;64303;53.118;9.044;2023-07-28T00:03:06;6.25;;;4.75;;
75689;SDS011;64303;53.118;9.044;2023-07-28T00:05:33;9.05;;;5.82;;
75689;SDS011;64303;53.118;9.044;2023-07-28T00:07:59;7.22;;;3.47;;
75689;SDS011;64303;53.118;9.044;2023-07-28T00:10:26;8.00;;;4.93;;
75689;SDS011;64303;53.118;9.044;2023-07-28T00:12:52;9.02;;;5.22;;
75689;SDS011;64303;53.118;9.044;2023-07-28T00:15:19;12.07;;;5.50;;
75689;SDS011;64303;53.118;9.044;2023-07-28T00:17:46;6.80;;;4.38;;
75689;SDS011;64303;53.118;9.044;2023-07-28T00:20:14;7.38;;;3.75;;
75689;SDS011;64303;53.118;9.044;2023-07-28T00:22:41;8.25;;;5.22;;
75689;SDS011;64303;53.118;9.044;2023-07-28T00:25:08;7.63;;;4.85;;
75689;SDS011;64303;53.118;9.044;2023-07-28T00:27:34;5.93;;;4.32;;
75689;SDS011;64303;53.118;9.044;2023-07-28T00:30:01;6.03;;;4.40;;
75689;SDS011;64303;53.118;9.044;2023-07-28T00:32:28;6.78;;;4.47;;
75689;SDS011;64303;53.118;9.044;2023-07-28T00:34:55;4.10;;;3.03;;
75689;SDS011;64303;53.118;9.044;2023-07-28T00:37:22;5.32;;;4.53;;
75689;SDS011;64303;53.118;9.044;2023-07-28T00:39:49;5.05;;;3.08;;
75689;SDS011;64303;53.118;9.044;2023-07-28T00:42:16;5.47;;;4.53;;
75689;SDS011;64303;53.118;9.044;2023-07-28T00:44:42;5.05;;;3.85;;
75689;SDS011;64303;53.118;9.044;2023-07-28T00:47:09;4.78;;;3.70;;
75689;SDS011;64303;53.118;9.044;2023-07-28T00:49:36;5.85;;;4.15;;
75689;SDS011;64303;53.118;9.044;2023-07-28T00:52:03;5.13;;;4.63;;
75689;SDS011;64303;53.118;9.044;2023-07-28T00:54:31;3.88;;;3.05;;
75689;SDS011;64303;53.118;9.044;2023-07-28T00:56:58;3.85;;;2.70;;
75689;SDS011;64303;53.118;9.044;2023-07-28T00:59:25;5.15;;;4.30;;
75689;SDS011;64303;53.118;9.044;2023-07-28T01:01:52;5.53;;;2.63;;
75689;SDS011;64303;53.118;9.044;2023-07-28T01:04:19;6.82;;;4.03;;
75689;SDS011;64303;53.118;9.044;2023-07-28T01:06:47;6.00;;;4.10;;
75689;SDS011;64303;53.118;9.044;2023-07-28T01:09:21;7.40;;;4.43;;
75689;SDS011;64303;53.118;9.044;2023-07-28T01:11:56;7.07;;;6.20;;
75689;SDS011;64303;53.118;9.044;2023-07-28T01:14:24;7.13;;;4.20;;
75689;SDS011;64303;53.118;9.044;2023-07-28T01:16:51;8.45;;;6.15;;
75689;SDS011;64303;53.118;9.044;2023-07-28T01:19:18;8.18;;;4.75;;
75689;SDS011;64303;53.118;9.044;2023-07-28T01:21:48;9.38;;;6.03;;
75689;SDS011;64303;53.118;9.044;2023-07-28T01:24:21;9.40;;;5.60;;
75689;SDS011;64303;53.118;9.044;2023-07-28T01:26:54;10.77;;;4.47;;
75689;SDS011;64303;53.118;9.044;2023-07-28T01:29:21;6.68;;;4.53;;
75689;SDS011;64303;53.118;9.044;2023-07-28T01:31:48;8.13;;;6.50;;
75689;SDS011;64303;53.118;9.044;2023-07-28T01:34:15;6.57;;;3.90;;
75689;SDS011;64303;53.118;9.044;2023-07-28T01:36:41;7.07;;;4.10;;
75689;SDS011;64303;53.118;9.044;2023-07-28T01:39:08;6.95;;;3.92;;
75689;SDS011;64303;53.118;9.044;2023-07-28T01:41:35;7.55;;;4.30;;
75689;SDS011;64303;53.118;9.044;2023-07-28T01:44:03;10.48;;;6.53;;
75689;SDS011;64303;53.118;9.044;2023-07-28T01:46:30;10.90;;;6.93;;
75689;SDS011;64303;53.118;9.044;2023-07-28T01:48:57;8.00;;;5.45;;
75689;SDS011;64303;53.118;9.044;2023-07-28T01:51:23;8.48;;;5.13;;
75689;SDS011;64303;53.118;9.044;2023-07-28T01:53:50;11.20;;;8.05;;
75689;SDS011;64303;53.118;9.044;2023-07-28T01:56:17;10.30;;;5.85;;
75689;SDS011;64303;53.118;9.044;2023-07-28T01:58:43;10.85;;;5.53;;
75689;SDS011;64303;53.118;9.044;2023-07-28T02:01:13;9.90;;;7.03;;
75689;SDS011;64303;53.118;9.044;2023-07-28T02:03:40;11.77;;;8.30;;
75689;SDS011;64303;53.118;9.044;2023-07-28T02:06:06;11.13;;;9.43;;
75689;SDS011;64303;53.118;9.044;2023-07-28T02:08:33;9.15;;;5.30;;
75689;SDS011;64303;53.118;9.044;2023-07-28T02:11:00;11.15;;;5.80;;
75689;SDS011;64303;53.118;9.044;2023-07-28T02:13:27;10.15;;;7.60;;
75689;SDS011;64303;53.118;9.044;2023-07-28T02:15:54;8.45;;;5.65;;
75689;SDS011;64303;53.118;9.044;2023-07-28T02:18:22;9.55;;;4.70;;
75689;SDS011;64303;53.118;9.044;2023-07-28T02:20:49;10.40;;;7.00;;
75689;SDS011;64303;53.118;9.044;2023-07-28T02:23:15;8.02;;;4.93;;
75689;SDS011;64303;53.118;9.044;2023-07-28T02:25:42;8.88;;;7.38;;
75689;SDS011;64303;53.118;9.044;2023-07-28T02:28:09;9.98;;;6.00;;
75689;SDS011;64303;53.118;9.044;2023-07-28T02:30:36;12.98;;;7.50;;
75689;SDS011;64303;53.118;9.044;2023-07-28T02:33:05;11.25;;;8.23;;
75689;SDS011;64303;53.118;9.044;2023-07-28T02:35:33;11.07;;;6.95;;
75689;SDS011;64303;53.118;9.044;2023-07-28T02:38:01;13.05;;;7.53;;
75689;SDS011;64303;53.118;9.044;2023-07-28T02:40:28;11.73;;;6.95;;
75689;SDS011;64303;53.118;9.044;2023-07-28T02:42:55;12.32;;;8.45;;
75689;SDS011;64303;53.118;9.044;2023-07-28T02:45:22;13.90;;;10.30;;
75689;SDS011;64303;53.118;9.044;2023-07-28T02:47:50;13.73;;;7.88;;
75689;SDS011;64303;53.118;9.044;2023-07-28T02:50:16;13.23;;;7.70;;
75689;SDS011;64303;53.118;9.044;2023-07-28T02:52:45;15.30;;;9.02;;
75689;SDS011;64303;53.118;9.044;2023-07-28T02:55:11;15.70;;;8.60;;
75689;SDS011;64303;53.118;9.044;2023-07-28T02:57:38;12.85;;;7.20;;
75689;SDS011;64303;53.118;9.044;2023-07-28T03:00:05;15.07;;;9.50;;
75689;SDS011;64303;53.118;9.044;2023-07-28T03:02:36;14.07;;;8.70;;
75689;SDS011;64303;53.118;9.044;2023-07-28T03:05:02;14.68;;;9.52;;
75689;SDS011;64303;53.118;9.044;2023-07-28T03:07:54;15.63;;;8.98;;
75689;SDS011;64303;53.118;9.044;2023-07-28T03:10:21;13.15;;;8.27;;
75689;SDS011;64303;53.118;9.044;2023-07-28T03:12:48;15.40;;;8.23;;
75689;SDS011;64303;53.118;9.044;2023-07-28T03:15:15;14.02;;;8.48;;
75689;SDS011;64303;53.118;9.044;2023-07-28T03:17:41;16.02;;;9.15;;
75689;SDS011;64303;53.118;9.044;2023-07-28T03:20:08;19.00;;;8.90;;
75689;SDS011;64303;53.118;9.044;2023-07-28T03:25:04;13.75;;;8.10;;
75689;SDS011;64303;53.118;9.044;2023-07-28T03:27:31;16.20;;;12.07;;
75689;SDS011;64303;53.118;9.044;2023-07-28T03:29:57;17.40;;;10.75;;
75689;SDS011;64303;53.118;9.044;2023-07-28T03:32:24;17.85;;;10.00;;
75689;SDS011;64303;53.118;9.044;2023-07-28T03:34:51;18.98;;;9.23;;
75689;SDS011;64303;53.118;9.044;2023-07-28T03:37:19;15.90;;;12.18;;
75689;SDS011;64303;53.118;9.044;2023-07-28T03:39:46;18.65;;;12.50;;
75689;SDS011;64303;53.118;9.044;2023-07-28T03:42:15;14.75;;;9.15;;
75689;SDS011;64303;53.118;9.044;2023-07-28T03:44:41;15.90;;;10.85;;
75689;SDS011;64303;53.118;9.044;2023-07-28T03:47:08;17.48;;;10.10;;
75689;SDS011;64303;53.118;9.044;2023-07-28T03:49:35;15.82;;;9.38;;
75689;SDS011;64303;53.118;9.044;2023-07-28T03:52:01;16.95;;;10.10;;
75689;SDS011;64303;53.118;9.044;2023-07-28T03:54:28;12.35;;;7.22;;
75689;SDS011;64303;53.118;9.044;2023-07-28T03:56:55;15.90;;;9.77;;
75689;SDS011;64303;53.118;9.044;2023-07-28T03:59:23;15.18;;;9.90;;
75689;SDS011;64303;53.118;9.044;2023-07-28T04:01:49;15.38;;;8.35;;
75689;SDS011;64303;53.118;9.044;2023-07-28T04:04:17;16.13;;;9.05;;
75689;SDS011;64303;53.118;9.044;2023-07-28T04:06:45;17.45;;;8.60;;
75689;SDS011;64303;53.118;9.044;2023-07-28T04:09:13;13.43;;;7.32;;
75689;SDS011;64303;53.118;9.044;2023-07-28T04:11:40;13.13;;;7.47;;
75689;SDS011;64303;53.118;9.044;2023-07-28T04:14:07;12.63;;;9.30;;
75689;SDS011;64303;53.118;9.044;2023-07-28T04:16:35;11.25;;;6.80;;
75689;SDS011;64303;53.118;9.044;2023-07-28T04:19:02;12.90;;;8.07;;
75689;SDS011;64303;53.118;9.044;2023-07-28T04:21:29;10.48;;;6.07;;
75689;SDS011;64303;53.118;9.044;2023-07-28T04:23:56;10.05;;;6.18;;
75689;SDS011;64303;53.118;9.044;2023-07-28T04:26:23;10.68;;;7.07;;
75689;SDS011;64303;53.118;9.044;2023-07-28T04:31:23;8.75;;;5.68;;
75689;SDS011;64303;53.118;9.044;2023-07-28T04:33:55;10.93;;;7.63;;
75689;SDS011;64303;53.118;9.044;2023-07-28T04:36:26;9.88;;;6.75;;
75689;SDS011;64303;53.118;9.044;2023-07-28T04:38:53;12.10;;;6.25;;
75689;SDS011;64303;53.118;9.044;2023-07-28T04:41:23;9.02;;;7.68;;
75689;SDS011;64303;53.118;9.044;2023-07-28T04:43:52;9.32;;;6.05;;
75689;SDS011;64303;53.118;9.044;2023-07-28T04:46:19;10.52;;;7.55;;
75689;SDS011;64303;53.118;9.044;2023-07-28T04:48:51;9.93;;;7.43;;
75689;SDS011;64303;53.118;9.044;2023-07-28T04:51:40;9.10;;;5.60;;
75689;SDS011;64303;53.118;9.044;2023-07-28T04:54:38;8.90;;;6.32;;
75689;SDS011;64303;53.118;9.044;2023-07-28T04:57:05;10.43;;;6.38;;
75689;SDS011;64303;53.118;9.044;2023-07-28T04:59:33;10.20;;;6.75;;
75689;SDS011;64303;53.118;9.044;2023-07-28T05:02:00;10.38;;;5.43;;
75689;SDS011;64303;53.118;9.044;2023-07-28T05:04:27;11.43;;;5.20;;
75689;SDS011;64303;53.118;9.044;2023-07-28T05:06:55;8.30;;;4.82;;
75689;SDS011;64303;53.118;9.044;2023-07-28T05:09:21;5.63;;;3.67;;
75689;SDS011;64303;53.118;9.044;2023-07-28T05:11:48;5.93;;;3.50;;
75689;SDS011;64303;53.118;9.044;2023-07-28T05:14:16;6.15;;;4.43;;
75689;SDS011;64303;53.118;9.044;2023-07-28T05:16:43;6.32;;;4.13;;
75689;SDS011;64303;53.118;9.044;2023-07-28T05:19:09;5.43;;;3.45;;
75689;SDS011;64303;53.118;9.044;2023-07-28T05:21:57;5.88;;;5.05;;
75689;SDS011;64303;53.118;9.044;2023-07-28T05:24:44;4.55;;;3.55;;
75689;SDS011;64303;53.118;9.044;2023-07-28T05:27:12;5.90;;;2.75;;
75689;SDS011;64303;53.118;9.044;2023-07-28T05:29:42;5.53;;;4.72;;
75689;SDS011;64303;53.118;9.044;2023-07-28T05:32:09;4.63;;;3.33;;
75689;SDS011;64303;53.118;9.044;2023-07-28T05:34:56;6.57;;;2.83;;
75689;SDS011;64303;53.118;9.044;2023-07-28T05:37:24;4.50;;;2.80;;
75689;SDS011;64303;53.118;9.044;2023-07-28T05:39:50;3.92;;;2.85;;
75689;SDS011;64303;53.118;9.044;2023-07-28T05:42:19;6.25;;;2.90;;
75689;SDS011;64303;53.118;9.044;2023-07-28T05:44:47;5.38;;;3.65;;
75689;SDS011;64303;53.118;9.044;2023-07-28T05:47:14;4.85;;;3.33;;
75689;SDS011;64303;53.118;9.044;2023-07-28T05:49:40;5.72;;;3.70;;
75689;SDS011;64303;53.118;9.044;2023-07-28T05:52:07;5.43;;;4.85;;
75689;SDS011;64303;53.118;9.044;2023-07-28T05:54:35;6.40;;;4.68;;
75689;SDS011;64303;53.118;9.044;2023-07-28T05:57:02;4.63;;;3.22;;
75689;SDS011;64303;53.118;9.044;2023-07-28T05:59:29;5.07;;;4.20;;
75689;SDS011;64303;53.118;9.044;2023-07-28T06:01:55;6.40;;;3.40;;
75689;SDS011;64303;53.118;9.044;2023-07-28T06:04:35;4.78;;;2.92;;
75689;SDS011;64303;53.118;9.044;2023-07-28T06:07:04;4.97;;;3.47;;
75689;SDS011;64303;53.118;9.044;2023-07-28T06:12:00;7.53;;;3.63;;
75689;SDS011;64303;53.118;9.044;2023-07-28T06:14:27;5.53;;;3.78;;
75689;SDS011;64303;53.118;9.044;2023-07-28T06:16:55;6.60;;;4.28;;
75689;SDS011;64303;53.118;9.044;2023-07-28T06:19:23;4.75;;;3.47;;
75689;SDS011;64303;53.118;9.044;2023-07-28T06:24:17;5.95;;;2.95;;
75689;SDS011;64303;53.118;9.044;2023-07-28T06:26:44;4.90;;;2.88;;
75689;SDS011;64303;53.118;9.044;2023-07-28T06:29:12;4.65;;;3.10;;
75689;SDS011;64303;53.118;9.044;2023-07-28T06:31:39;5.40;;;3.67;;
75689;SDS011;64303;53.118;9.044;2023-07-28T06:34:06;4.97;;;3.45;;
75689;SDS011;64303;53.118;9.044;2023-07-28T06:36:33;7.82;;;3.13;;
75689;SDS011;64303;53.118;9.044;2023-07-28T06:38:59;4.65;;;3.90;;
75689;SDS011;64303;53.118;9.044;2023-07-28T06:41:26;4.90;;;2.85;;
75689;SDS011;64303;53.118;9.044;2023-07-28T06:43:58;4.50;;;3.05;;
75689;SDS011;64303;53.118;9.044;2023-07-28T06:46:26;4.55;;;3.67;;
75689;SDS011;64303;53.118;9.044;2023-07-28T06:48:53;5.85;;;3.67;;
75689;SDS011;64303;53.118;9.044;2023-07-28T06:51:20;4.43;;;3.05;;
75689;SDS011;64303;53.118;9.044;2023-07-28T06:53:46;4.50;;;3.53;;
75689;SDS011;64303;53.118;9.044;2023-07-28T06:56:13;4.80;;;3.60;;
75689;SDS011;64303;53.118;9.044;2023-07-28T06:58:39;4.63;;;3.95;;
75689;SDS011;64303;53.118;9.044;2023-07-28T07:01:06;4.13;;;2.65;;
75689;SDS011;64303;53.118;9.044;2023-07-28T07:03:37;4.65;;;2.60;;
75689;SDS011;64303;53.118;9.044;2023-07-28T07:06:04;4.55;;;2.42;;
75689;SDS011;64303;53.118;9.044;2023-07-28T07:08:31;4.30;;;3.22;;
75689;SDS011;64303;53.118;9.044;2023-07-28T07:10:58;4.38;;;2.60;;
75689;SDS011;64303;53.118;9.044;2023-07-28T07:13:24;4.40;;;2.92;;
75689;SDS011;64303;53.118;9.044;2023-07-28T07:15:51;6.25;;;5.65;;
75689;SDS011;64303;53.118;9.044;2023-07-28T07:18:18;9.80;;;7.20;;
75689;SDS011;64303;53.118;9.044;2023-07-28T07:20:46;12.02;;;7.15;;
75689;SDS011;64303;53.118;9.044;2023-07-28T07:23:13;20.17;;;8.65;;
75689;SDS011;64303;53.118;9.044;2023-07-28T07:25:39;18.83;;;10.23;;
75689;SDS011;64303;53.118;9.044;2023-07-28T07:28:07;17.85;;;9.70;;
75689;SDS011;64303;53.118;9.044;2023-07-28T07:30:33;22.30;;;11.30;;
75689;SDS011;64303;53.118;9.044;2023-07-28T07:33:00;21.05;;;10.63;;
75689;SDS011;64303;53.118;9.044;2023-07-28T07:35:27;22.45;;;13.15;;
75689;SDS011;64303;53.118;9.044;2023-07-28T07:37:55;25.30;;;14.30;;
75689;SDS011;64303;53.118;9.044;2023-07-28T07:40:21;24.70;;;14.80;;
75689;SDS011;64303;53.118;9.044;2023-07-28T07:42:48;25.45;;;13.82;;
75689;SDS011;64303;53.118;9.044;2023-07-28T07:45:16;25.95;;;16.33;;
75689;SDS011;64303;53.118;9.044;2023-07-28T07:47:42;23.55;;;14.38;;
75689;SDS011;64303;53.118;9.044;2023-07-28T07:50:10;22.17;;;14.43;;
75689;SDS011;64303;53.118;9.044;2023-07-28T07:52:38;23.83;;;12.45;;
75689;SDS011;64303;53.118;9.044;2023-07-28T07:55:06;21.77;;;12.73;;
75689;SDS011;64303;53.118;9.044;2023-07-28T07:57:36;24.17;;;14.55;;
75689;SDS011;64303;53.118;9.044;2023-07-28T08:00:03;25.20;;;13.82;;
75689;SDS011;64303;53.118;9.044;2023-07-28T08:02:38;23.92;;;13.27;;
75689;SDS011;64303;53.118;9.044;2023-07-28T08:05:05;27.98;;;16.33;;
75689;SDS011;64303;53.118;9.044;2023-07-28T08:07:32;24.63;;;15.38;;
75689;SDS011;64303;53.118;9.044;2023-07-28T08:09:59;26.58;;;14.00;;
75689;SDS011;64303;53.118;9.044;2023-07-28T08:12:28;25.30;;;17.95;;
75689;SDS011;64303;53.118;9.044;2023-07-28T08:14:54;30.67;;;17.55;;
75689;SDS011;64303;53.118;9.044;2023-07-28T08:17:21;25.33;;;15.82;;
75689;SDS011;64303;53.118;9.044;2023-07-28T08:19:48;28.58;;;18.70;;
75689;SDS011;64303;53.118;9.044;2023-07-28T08:22:14;27.35;;;15.07;;
75689;SDS011;64303;53.118;9.044;2023-07-28T08:24:41;28.27;;;16.33;;
75689;SDS011;64303;53.118;9.044;2023-07-28T08:27:08;29.30;;;15.18;;
75689;SDS011;64303;53.118;9.044;2023-07-28T08:29:36;22.67;;;14.07;;
75689;SDS011;64303;53.118;9.044;2023-07-28T08:32:02;26.90;;;15.30;;
75689;SDS011;64303;53.118;9.044;2023-07-28T08:34:29;29.10;;;16.33;;
75689;SDS011;64303;53.118;9.044;2023-07-28T08:36:56;29.10;;;16.10;;
75689;SDS011;64303;53.118;9.044;2023-07-28T08:39:23;26.30;;;13.88;;
75689;SDS011;64303;53.118;9.044;2023-07-28T08:41:56;21.23;;;13.27;;
75689;SDS011;64303;53.118;9.044;2023-07-28T08:44:24;23.02;;;13.90;;
75689;SDS011;64303;53.118;9.044;2023-07-28T08:46:53;26.15;;;13.68;;
75689;SDS011;64303;53.118;9.044;2023-07-28T08:49:20;19.65;;;10.15;;
75689;SDS011;64303;53.118;9.044;2023-07-28T08:51:48;13.23;;;9.60;;
75689;SDS011;64303;53.118;9.044;2023-07-28T08:54:15;11.07;;;7.60;;
75689;SDS011;64303;53.118;9.044;2023-07-28T08:56:42;6.80;;;4.78;;
75689;SDS011;64303;53.118;9.044;2023-07-28T08:59:09;6.68;;;4.38;;
75689;SDS011;64303;53.118;9.044;2023-07-28T09:01:38;6.80;;;4.50;;
75689;SDS011;64303;53.118;9.044;2023-07-28T09:04:09;8.80;;;4.22;;
75689;SDS011;64303;53.118;9.044;2023-07-28T09:06:37;6.78;;;4.43;;
75689;SDS011;64303;53.118;9.044;2023-07-28T09:09:05;4.10;;;2.42;;
75689;SDS011;64303;53.118;9.044;2023-07-28T09:11:33;5.20;;;4.50;;
75689;SDS011;64303;53.118;9.044;2023-07-28T09:14:00;4.22;;;2.97;;
75689;SDS011;64303;53.118;9.044;2023-07-28T09:16:27;5.03;;;3.17;;
75689;SDS011;64303;53.118;9.044;2023-07-28T09:19:03;3.72;;;3.17;;
75689;SDS011;64303;53.118;9.044;2023-07-28T09:21:31;6.00;;;3.47;;
75689;SDS011;64303;53.118;9.044;2023-07-28T09:23:59;4.75;;;2.83;;
75689;SDS011;64303;53.118;9.044;2023-07-28T09:26:35;4.32;;;2.72;;
75689;SDS011;64303;53.118;9.044;2023-07-28T09:29:10;2.90;;;2.13;;
75689;SDS011;64303;53.118;9.044;2023-07-28T09:31:37;3.70;;;2.28;;
75689;SDS011;64303;53.118;9.044;2023-07-28T09:34:06;3.10;;;2.45;;
75689;SDS011;64303;53.118;9.044;2023-07-28T09:36:35;3.47;;;1.63;;
75689;SDS011;64303;53.118;9.044;2023-07-28T09:39:04;2.75;;;1.80;;
75689;SDS011;64303;53.118;9.044;2023-07-28T09:41:34;3.95;;;2.28;;
75689;SDS011;64303;53.118;9.044;2023-07-28T09:44:01;3.47;;;2.92;;
75689;SDS011;64303;53.118;9.044;2023-07-28T09:46:28;5.13;;;3.47;;
75689;SDS011;64303;53.118;9.044;2023-07-28T09:48:55;4.80;;;2.75;;
75689;SDS011;64303;53.118;9.044;2023-07-28T09:51:23;3.10;;;2.47;;
75689;SDS011;64303;53.118;9.044;2023-07-28T09:53:55;3.78;;;2.80;;
75689;SDS011;64303;53.118;9.044;2023-07-28T09:56:25;5.10;;;3.15;;
75689;SDS011;64303;53.118;9.044;2023-07-28T09:58:54;7.95;;;3.58;;
75689;SDS011;64303;53.118;9.044;2023-07-28T10:01:22;4.30;;;2.85;;
75689;SDS011;64303;53.118;9.044;2023-07-28T10:03:49;5.28;;;4.88;;
75689;SDS011;64303;53.118;9.044;2023-07-28T10:06:16;9.00;;;5.07;;
75689;SDS011;64303;53.118;9.044;2023-07-28T10:11:12;9.23;;;6.68;;
75689;SDS011;64303;53.118;9.044;2023-07-28T10:13:41;9.10;;;5.07;;
75689;SDS011;64303;53.118;9.044;2023-07-28T10:16:08;11.40;;;6.65;;
75689;SDS011;64303;53.118;9.044;2023-07-28T10:18:35;11.27;;;7.55;;
75689;SDS011;64303;53.118;9.044;2023-07-28T10:21:04;13.85;;;11.27;;
75689;SDS011;64303;53.118;9.044;2023-07-28T10:23:33;11.70;;;7.53;;
75689;SDS011;64303;53.118;9.044;2023-07-28T10:26:00;15.80;;;8.68;;
75689;SDS011;64303;53.118;9.044;2023-07-28T10:28:29;10.20;;;8.23;;
75689;SDS011;64303;53.118;9.044;2023-07-28T10:30:57;11.25;;;9.15;;
75689;SDS011;64303;53.118;9.044;2023-07-28T10:33:31;8.80;;;5.85;;
75689;SDS011;64303;53.118;9.044;2023-07-28T10:35:59;9.60;;;5.88;;
75689;SDS011;64303;53.118;9.044;2023-07-28T10:38:35;9.70;;;5.78;;
75689;SDS011;64303;53.118;9.044;2023-07-28T10:41:09;7.85;;;5.63;;
75689;SDS011;64303;53.118;9.044;2023-07-28T10:43:43;6.72;;;4.45;;
75689;SDS011;64303;53.118;9.044;2023-07-28T10:46:13;7.15;;;4.15;;
75689;SDS011;64303;53.118;9.044;2023-07-28T10:48:41;13.13;;;4.32;;
75689;SDS011;64303;53.118;9.044;2023-07-28T10:51:12;3.72;;;2.53;;
75689;SDS011;64303;53.118;9.044;2023-07-28T10:53:39;3.90;;;2.75;;
75689;SDS011;64303;53.118;9.044;2023-07-28T10:56:05;4.38;;;3.00;;
75689;SDS011;64303;53.118;9.044;2023-07-28T10:58:34;4.28;;;3.05;;
75689;SDS011;64303;53.118;9.044;2023-07-28T11:01:03;5.28;;;2.58;;
75689;SDS011;64303;53.118;9.044;2023-07-28T11:03:30;4.32;;;2.88;;
75689;SDS011;64303;53.118;9.044;2023-07-28T11:05:56;5.20;;;3.17;;
75689;SDS011;64303;53.118;9.044;2023-07-28T11:08:23;5.88;;;3.00;;
75689;SDS011;64303;53.118;9.044;2023-07-28T11:10:50;4.07;;;2.47;;
75689;SDS011;64303;53.118;9.044;2023-07-28T11:13:16;6.28;;;4.93;;
75689;SDS011;64303;53.118;9.044;2023-07-28T11:15:43;5.57;;;3.50;;
75689;SDS011;64303;53.118;9.044;2023-07-28T11:18:11;5.00;;;3.58;;
75689;SDS011;64303;53.118;9.044;2023-07-28T11:20:41;4.18;;;3.47;;
75689;SDS011;64303;53.118;9.044;2023-07-28T11:23:08;4.43;;;2.47;;
75689;SDS011;64303;53.118;9.044;2023-07-28T11:25:35;4.40;;;2.67;;
75689;SDS011;64303;53.118;9.044;2023-07-28T11:28:02;3.80;;;2.03;;
75689;SDS011;64303;53.118;9.044;2023-07-28T11:30:30;4.97;;;3.15;;
75689;SDS011;64303;53.118;9.044;2023-07-28T11:32:58;7.10;;;3.45;;
75689;SDS011;64303;53.118;9.044;2023-07-28T11:35:25;4.93;;;3.17;;
75689;SDS011;64303;53.118;9.044;2023-07-28T11:37:52;5.78;;;3.22;;
75689;SDS011;64303;53.118;9.044;2023-07-28T11:40:20;6.82;;;3.33;;
75689;SDS011;64303;53.118;9.044;2023-07-28T11:42:48;4.60;;;2.72;;
75689;SDS011;64303;53.118;9.044;2023-07-28T11:45:16;6.88;;;3.03;;
75689;SDS011;64303;53.118;9.044;2023-07-28T11:47:57;6.35;;;3.00;;
75689;SDS011;64303;53.118;9.044;2023-07-28T11:50:26;6.13;;;3.92;;
75689;SDS011;64303;53.118;9.044;2023-07-28T11:52:55;5.03;;;2.88;;
75689;SDS011;64303;53.118;9.044;2023-07-28T11:55:23;5.75;;;5.15;;
75689;SDS011;64303;53.118;9.044;2023-07-28T11:57:50;4.28;;;2.92;;
75689;SDS011;64303;53.118;9.044;2023-07-28T12:02:59;8.30;;;3.97;;
75689;SDS011;64303;53.118;9.044;2023-07-28T12:05:28;4.30;;;3.42;;
75689;SDS011;64303;53.118;9.044;2023-07-28T12:07:55;6.32;;;4.13;;
75689;SDS011;64303;53.118;9.044;2023-07-28T12:10:22;4.47;;;3.92;;
75689;SDS011;64303;53.118;9.044;2023-07-28T12:15:22;3.72;;;2.00;;
75689;SDS011;64303;53.118;9.044;2023-07-28T12:18:08;6.20;;;4.55;;
75689;SDS011;64303;53.118;9.044;2023-07-28T12:20:38;3.67;;;3.05;;
75689;SDS011;64303;53.118;9.044;2023-07-28T12:23:06;4.95;;;2.72;;
75689;SDS011;64303;53.118;9.044;2023-07-28T12:25:35;5.60;;;2.85;;
75689;SDS011;64303;53.118;9.044;2023-07-28T12:28:03;4.88;;;3.55;;
75689;SDS011;64303;53.118;9.044;2023-07-28T12:30:29;4.47;;;2.97;;
75689;SDS011;64303;53.118;9.044;2023-07-28T12:32:57;5.55;;;3.58;;
75689;SDS011;64303;53.118;9.044;2023-07-28T12:35:24;5.75;;;2.22;;
75689;SDS011;64303;53.118;9.044;2023-07-28T12:37:55;4.70;;;2.55;;
75689;SDS011;64303;53.118;9.044;2023-07-28T12:40:21;7.45;;;3.30;;
75689;SDS011;64303;53.118;9.044;2023-07-28T12:42:49;4.45;;;3.40;;
75689;SDS011;64303;53.118;9.044;2023-07-28T12:45:15;5.63;;;4.68;;
75689;SDS011;64303;53.118;9.044;2023-07-28T12:47:42;5.43;;;4.57;;
75689;SDS011;64303;53.118;9.044;2023-07-28T12:50:09;4.60;;;2.83;;
75689;SDS011;64303;53.118;9.044;2023-07-28T12:52:36;4.38;;;2.90;;
75689;SDS011;64303;53.118;9.044;2023-07-28T12:55:04;5.68;;;3.65;;
75689;SDS011;64303;53.118;9.044;2023-07-28T12:57:31;5.80;;;2.88;;
75689;SDS011;64303;53.118;9.044;2023-07-28T12:59:58;5.47;;;3.45;;
75689;SDS011;64303;53.118;9.044;2023-07-28T13:02:25;5.85;;;2.88;;
75689;SDS011;64303;53.118;9.044;2023-07-28T13:04:52;4.55;;;3.60;;
75689;SDS011;64303;53.118;9.044;2023-07-28T13:07:18;6.13;;;3.28;;
75689;SDS011;64303;53.118;9.044;2023-07-28T13:09:47;6.00;;;3.42;;
75689;SDS011;64303;53.118;9.044;2023-07-28T13:12:16;4.13;;;2.22;;
75689;SDS011;64303;53.118;9.044;2023-07-28T13:14:42;4.22;;;1.98;;
75689;SDS011;64303;53.118;9.044;2023-07-28T13:17:09;5.15;;;4.68;;
75689;SDS011;64303;53.118;9.044;2023-07-28T13:19:37;4.32;;;2.08;;
75689;SDS011;64303;53.118;9.044;2023-07-28T13:22:04;3.53;;;2.22;;
75689;SDS011;64303;53.118;9.044;2023-07-28T13:24:30;3.90;;;2.50;;
75689;SDS011;64303;53.118;9.044;2023-07-28T13:26:57;6.05;;;2.10;;
75689;SDS011;64303;53.118;9.044;2023-07-28T13:29:25;3.45;;;1.80;;
75689;SDS011;64303;53.118;9.044;2023-07-28T13:31:57;3.63;;;2.38;;
75689;SDS011;64303;53.118;9.044;2023-07-28T13:34:24;4.03;;;2.85;;
75689;SDS011;64303;53.118;9.044;2023-07-28T13:36:51;4.38;;;3.40;;
75689;SDS011;64303;53.118;9.044;2023-07-28T13:39:18;2.90;;;1.92;;
75689;SDS011;64303;53.118;9.044;2023-07-28T13:41:45;3.15;;;2.10;;
75689;SDS011;64303;53.118;9.044;2023-07-28T13:44:11;4.63;;;2.08;;
75689;SDS011;64303;53.118;9.044;2023-07-28T13:46:39;4.32;;;2.35;;
75689;SDS011;64303;53.118;9.044;2023-07-28T13:49:06;4.35;;;2.55;;
75689;SDS011;64303;53.118;9.044;2023-07-28T13:51:32;4.47;;;2.85;;
75689;SDS011;64303;53.118;9.044;2023-07-28T13:53:59;3.53;;;2.45;;
75689;SDS011;64303;53.118;9.044;2023-07-28T13:56:26;3.50;;;2.63;;
75689;SDS011;64303;53.118;9.044;2023-07-28T13:58:53;4.05;;;2.38;;
75689;SDS011;64303;53.118;9.044;2023-07-28T14:01:19;3.25;;;2.10;;
75689;SDS011;64303;53.118;9.044;2023-07-28T14:03:48;4.75;;;2.60;;
75689;SDS011;64303;53.118;9.044;2023-07-28T14:06:14;3.92;;;3.53;;
75689;SDS011;64303;53.118;9.044;2023-07-28T14:08:41;3.63;;;1.30;;
75689;SDS011;64303;53.118;9.044;2023-07-28T14:11:08;3.75;;;3.13;;
75689;SDS011;64303;53.118;9.044;2023-07-28T14:13:34;3.50;;;2.00;;
75689;SDS011;64303;53.118;9.044;2023-07-28T14:16:01;4.05;;;2.67;;
75689;SDS011;64303;53.118;9.044;2023-07-28T14:18:28;3.67;;;2.55;;
75689;SDS011;64303;53.118;9.044;2023-07-28T14:20:56;7.20;;;3.10;;
75689;SDS011;64303;53.118;9.044;2023-07-28T14:23:24;3.50;;;1.75;;
75689;SDS011;64303;53.118;9.044;2023-07-28T14:25:51;5.53;;;3.00;;
75689;SDS011;64303;53.118;9.044;2023-07-28T14:28:18;6.65;;;2.28;;
75689;SDS011;64303;53.118;9.044;2023-07-28T14:30:45;3.60;;;2.70;;
75689;SDS011;64303;53.118;9.044;2023-07-28T14:33:12;3.83;;;2.08;;
75689;SDS011;64303;53.118;9.044;2023-07-28T14:35:40;4.28;;;2.50;;
75689;SDS011;64303;53.118;9.044;2023-07-28T14:38:08;3.33;;;2.78;;
75689;SDS011;64303;53.118;9.044;2023-07-28T14:40:35;5.93;;;2.50;;
75689;SDS011;64303;53.118;9.044;2023-07-28T14:43:01;3.03;;;1.83;;
75689;SDS011;64303;53.118;9.044;2023-07-28T14:45:28;2.63;;;1.58;;
75689;SDS011;64303;53.118;9.044;2023-07-28T14:47:55;3.85;;;1.88;;
75689;SDS011;64303;53.118;9.044;2023-07-28T14:50:22;3.72;;;2.30;;
75689;SDS011;64303;53.118;9.044;2023-07-28T14:52:48;4.03;;;2.78;;
75689;SDS011;64303;53.118;9.044;2023-07-28T14:55:16;4.90;;;4.13;;
75689;SDS011;64303;53.118;9.044;2023-07-28T14:57:43;4.00;;;2.67;;
75689;SDS011;64303;53.118;9.044;2023-07-28T15:00:10;4.65;;;2.80;;
75689;SDS011;64303;53.118;9.044;2023-07-28T15:02:37;4.65;;;2.35;;
75689;SDS011;64303;53.118;9.044;2023-07-28T15:05:05;3.17;;;2.08;;